sensor_id;sensor_type;location;lat;lon;timestamp;pressure;altitude;pressure_sealevel;temperature;humidity
9189;BME280;34313;50.780;6.084;2024-01-30T00:01:41;100554.16;;;9.97;nan
9189;BME280;34313;50.780;6.084;2024-01-30T00:04:06;100550.56;;;10.00;nan
9189;BME280;34313;50.780;6.084;2024-01-30T00:06:32;100554.34;;;9.93;nan
9189;BME280;34313;50.780;6.084;2024-01-30T00:08:57;100563.41;;;9.86;nan
9189;BME280;34313;50.780;6.084;2024-01-30T00:11:23;100554.72;;;9.83;nan
9189;BME280;34313;50.780;6.084;2024-01-30T00:13:51;100560.13;;;9.79;nan
9189;BME280;34313;50.780;6.084;2024-01-30T00:16:23;100558.25;;;9.82;nan
9189;BME280;34313;50.780;6.084;2024-01-30T00:18:52;100553.88;;;9.81;nan
9189;BME280;34313;50.780;6.084;2024-01-30T00:21:18;100547.34;;;9.70;nan
9189;BME280;34313;50.780;6.084;2024-01-30T00:23:43;100549.19;;;9.90;nan
9189;BME280;34313;50.780;6.084;2024-01-30T00:26:09;100545.03;;;9.84;nan
9189;BME280;34313;50.780;6.084;2024-01-30T00:28:34;100536.56;;;9.76;nan
9189;BME280;34313;50.780;6.084;2024-01-30T00:31:00;100543.41;;;9.80;nan
9189;BME280;34313;50.780;6.084;2024-01-30T00:33:28;100537.03;;;9.87;nan
9189;BME280;34313;50.780;6.084;2024-01-30T00:35:53;100534.03;;;9.96;nan
9189;BME280;34313;50.780;6.084;2024-01-30T00:38:18;100530.53;;;9.96;nan
9189;BME280;34313;50.780;6.084;2024-01-30T00:40:44;100531.56;;;9.92;nan
9189;BME280;34313;50.780;6.084;2024-01-30T00:43:09;100523.28;;;10.01;nan
9189;BME280;34313;50.780;6.084;2024-01-30T00:45:34;100527.53;;;10.05;nan
9189;BME280;34313;50.780;6.084;2024-01-30T00:47:59;100525.28;;;9.96;nan
9189;BME280;34313;50.780;6.084;2024-01-30T00:50:25;100522.44;;;10.00;nan
9189;BME280;34313;50.780;6.084;2024-01-30T00:52:50;100523.91;;;10.08;nan
9189;BME280;34313;50.780;6.084;2024-01-30T00:55:15;100526.97;;;9.97;nan
9189;BME280;34313;50.780;6.084;2024-01-30T00:57:41;100525.06;;;10.00;nan
9189;BME280;34313;50.780;6.084;2024-01-30T01:00:07;100520.75;;;9.99;nan
9189;BME280;34313;50.780;6.084;2024-01-30T01:02:36;100521.03;;;9.92;nan
9189;BME280;34313;50.780;6.084;2024-01-30T01:05:02;100516.63;;;9.92;nan
9189;BME280;34313;50.780;6.084;2024-01-30T01:07:28;100518.00;;;10.01;nan
9189;BME280;34313;50.780;6.084;2024-01-30T01:09:53;100524.28;;;9.98;nan
9189;BME280;34313;50.780;6.084;2024-01-30T01:12:18;100527.06;;;9.94;nan
9189;BME280;34313;50.780;6.084;2024-01-30T01:14:43;100525.31;;;9.94;nan
9189;BME280;34313;50.780;6.084;2024-01-30T01:17:09;100519.44;;;9.88;nan
9189;BME280;34313;50.780;6.084;2024-01-30T01:19:34;100529.38;;;10.03;nan
9189;BME280;34313;50.780;6.084;2024-01-30T01:21:59;100518.34;;;9.93;nan
9189;BME280;34313;50.780;6.084;2024-01-30T01:24:25;100523.44;;;9.98;nan
9189;BME280;34313;50.780;6.084;2024-01-30T01:26:50;100529.91;;;9.89;nan
9189;BME280;34313;50.780;6.084;2024-01-30T01:29:15;100521.81;;;9.94;nan
9189;BME280;34313;50.780;6.084;2024-01-30T01:31:41;100514.72;;;9.96;nan
9189;BME280;34313;50.780;6.084;2024-01-30T01:34:12;100517.47;;;9.93;nan
9189;BME280;34313;50.780;6.084;2024-01-30T01:36:39;100522.13;;;9.86;nan
9189;BME280;34313;50.780;6.084;2024-01-30T01:39:04;100525.06;;;9.78;nan
9189;BME280;34313;50.780;6.084;2024-01-30T01:41:31;100524.13;;;9.79;nan
9189;BME280;34313;50.780;6.084;2024-01-30T01:43:57;100523.28;;;9.79;nan
9189;BME280;34313;50.780;6.084;2024-01-30T01:46:22;100522.34;;;9.80;nan
9189;BME280;34313;50.780;6.084;2024-01-30T01:48:48;100523.41;;;9.76;nan
9189;BME280;34313;50.780;6.084;2024-01-30T01:51:14;100521.44;;;9.81;nan
9189;BME280;34313;50.780;6.084;2024-01-30T01:53:39;100525.66;;;9.85;nan
9189;BME280;34313;50.780;6.084;2024-01-30T01:56:05;100524.69;;;9.88;nan
9189;BME280;34313;50.780;6.084;2024-01-30T01:58:31;100525.50;;;9.90;nan
9189;BME280;34313;50.780;6.084;2024-01-30T02:00:57;100523.22;;;9.80;nan
9189;BME280;34313;50.780;6.084;2024-01-30T02:03:23;100523.03;;;9.85;nan
9189;BME280;34313;50.780;6.084;2024-01-30T02:05:50;100523.22;;;9.80;nan
9189;BME280;34313;50.780;6.084;2024-01-30T02:08:16;100522.25;;;9.83;nan
9189;BME280;34313;50.780;6.084;2024-01-30T02:10:41;100518.91;;;9.78;nan
9189;BME280;34313;50.780;6.084;2024-01-30T02:13:07;100513.50;;;9.82;nan
9189;BME280;34313;50.780;6.084;2024-01-30T02:15:32;100506.56;;;9.80;nan
9189;BME280;34313;50.780;6.084;2024-01-30T02:17:57;100507.59;;;9.76;nan
9189;BME280;34313;50.780;6.084;2024-01-30T02:20:24;100507.59;;;9.76;nan
9189;BME280;34313;50.780;6.084;2024-01-30T02:22:52;100506.75;;;9.75;nan
9189;BME280;34313;50.780;6.084;2024-01-30T02:25:18;100495.28;;;9.76;nan
9189;BME280;34313;50.780;6.084;2024-01-30T02:27:43;100505.34;;;9.89;nan
9189;BME280;34313;50.780;6.084;2024-01-30T02:30:09;100507.06;;;9.90;nan
9189;BME280;34313;50.780;6.084;2024-01-30T02:32:35;100502.97;;;9.82;nan
9189;BME280;34313;50.780;6.084;2024-01-30T02:35:00;100501.75;;;9.91;nan
9189;BME280;34313;50.780;6.084;2024-01-30T02:37:25;100501.13;;;9.84;nan
9189;BME280;34313;50.780;6.084;2024-01-30T02:39:50;100496.84;;;9.82;nan
9189;BME280;34313;50.780;6.084;2024-01-30T02:42:16;100501.13;;;9.84;nan
9189;BME280;34313;50.780;6.084;2024-01-30T02:44:41;100496.53;;;9.90;nan
9189;BME280;34313;50.780;6.084;2024-01-30T02:47:06;100490.53;;;10.08;nan
9189;BME280;34313;50.780;6.084;2024-01-30T02:49:32;100495.06;;;10.05;nan
9189;BME280;34313;50.780;6.084;2024-01-30T02:51:57;100491.44;;;10.07;nan
9189;BME280;34313;50.780;6.084;2024-01-30T02:54:22;100487.41;;;9.98;nan
9189;BME280;34313;50.780;6.084;2024-01-30T02:56:47;100479.69;;;9.94;nan
9189;BME280;34313;50.780;6.084;2024-01-30T02:59:13;100477.13;;;9.92;nan
9189;BME280;34313;50.780;6.084;2024-01-30T03:01:44;100477.13;;;9.92;nan
9189;BME280;34313;50.780;6.084;2024-01-30T03:04:10;100481.41;;;9.95;nan
9189;BME280;34313;50.780;6.084;2024-01-30T03:06:36;100477.19;;;9.91;nan
9189;BME280;34313;50.780;6.084;2024-01-30T03:09:01;100473.50;;;9.95;nan
9189;BME280;34313;50.780;6.084;2024-01-30T03:11:27;100477.66;;;10.00;nan
9189;BME280;34313;50.780;6.084;2024-01-30T03:13:52;100478.88;;;9.92;nan
9189;BME280;34313;50.780;6.084;2024-01-30T03:16:18;100477.13;;;9.92;nan
9189;BME280;34313;50.780;6.084;2024-01-30T03:18:43;100476.94;;;9.97;nan
9189;BME280;34313;50.780;6.084;2024-01-30T03:21:08;100482.47;;;9.91;nan
9189;BME280;34313;50.780;6.084;2024-01-30T03:23:33;100478.16;;;9.88;nan
9189;BME280;34313;50.780;6.084;2024-01-30T03:25:59;100471.72;;;9.95;nan
9189;BME280;34313;50.780;6.084;2024-01-30T03:28:24;100475.09;;;9.99;nan
9189;BME280;34313;50.780;6.084;2024-01-30T03:30:49;100476.25;;;9.92;nan
9189;BME280;34313;50.780;6.084;2024-01-30T03:33:15;100470.81;;;9.96;nan
9189;BME280;34313;50.780;6.084;2024-01-30T03:35:40;100478.03;;;9.91;nan
9189;BME280;34313;50.780;6.084;2024-01-30T03:38:05;100478.78;;;9.95;nan
9189;BME280;34313;50.780;6.084;2024-01-30T03:40:30;100473.13;;;10.04;nan
9189;BME280;34313;50.780;6.084;2024-01-30T03:42:56;100469.88;;;9.97;nan
9189;BME280;34313;50.780;6.084;2024-01-30T03:45:21;100471.78;;;9.94;nan
9189;BME280;34313;50.780;6.084;2024-01-30T03:47:46;100471.97;;;9.89;nan
9189;BME280;34313;50.780;6.084;2024-01-30T03:50:12;100475.84;;;9.80;nan
9189;BME280;34313;50.780;6.084;2024-01-30T03:52:37;100472.31;;;9.80;nan
9189;BME280;34313;50.780;6.084;2024-01-30T03:55:02;100484.75;;;9.76;nan
9189;BME280;34313;50.780;6.084;2024-01-30T03:57:28;100474.91;;;9.81;nan
9189;BME280;34313;50.780;6.084;2024-01-30T03:59:53;100475.94;;;9.77;nan
9189;BME280;34313;50.780;6.084;2024-01-30T04:02:19;100481.22;;;9.77;nan
9189;BME280;34313;50.780;6.084;2024-01-30T04:04:44;100469.69;;;9.80;nan
9189;BME280;34313;50.780;6.084;2024-01-30T04:07:09;100464.09;;;9.89;nan
9189;BME280;34313;50.780;6.084;2024-01-30T04:09:35;100470.09;;;9.93;nan
9189;BME280;34313;50.780;6.084;2024-01-30T04:12:00;100465.03;;;9.87;nan
9189;BME280;34313;50.780;6.084;2024-01-30T04:14:27;100466.44;;;9.95;nan
9189;BME280;34313;50.780;6.084;2024-01-30T04:16:53;100464.59;;;9.97;nan
9189;BME280;34313;50.780;6.084;2024-01-30T04:19:18;100460.16;;;9.99;nan
9189;BME280;34313;50.780;6.084;2024-01-30T04:21:43;100455.13;;;9.93;nan
9189;BME280;34313;50.780;6.084;2024-01-30T04:24:08;100452.16;;;10.01;nan
9189;BME280;34313;50.780;6.084;2024-01-30T04:26:34;100454.50;;;10.09;nan
9189;BME280;34313;50.780;6.084;2024-01-30T04:28:59;100454.41;;;10.12;nan
9189;BME280;34313;50.780;6.084;2024-01-30T04:31:24;100453.56;;;10.10;nan
9189;BME280;34313;50.780;6.084;2024-01-30T04:33:50;100449.38;;;10.06;nan
9189;BME280;34313;50.780;6.084;2024-01-30T04:36:15;100462.53;;;10.06;nan
9189;BME280;34313;50.780;6.084;2024-01-30T04:38:40;100457.16;;;10.09;nan
9189;BME280;34313;50.780;6.084;2024-01-30T04:41:06;100452.66;;;10.11;nan
9189;BME280;34313;50.780;6.084;2024-01-30T04:43:31;100444.22;;;10.02;nan
9189;BME280;34313;50.780;6.084;2024-01-30T04:45:56;100443.63;;;9.96;nan
9189;BME280;34313;50.780;6.084;2024-01-30T04:48:21;100448.81;;;9.97;nan
9189;BME280;34313;50.780;6.084;2024-01-30T04:50:47;100451.44;;;9.97;nan
9189;BME280;34313;50.780;6.084;2024-01-30T04:53:12;100456.06;;;9.92;nan
9189;BME280;34313;50.780;6.084;2024-01-30T04:55:37;100455.38;;;9.87;nan
9189;BME280;34313;50.780;6.084;2024-01-30T04:58:03;100461.63;;;9.84;nan
9189;BME280;34313;50.780;6.084;2024-01-30T05:00:28;100455.72;;;9.78;nan
9189;BME280;34313;50.780;6.084;2024-01-30T05:02:55;100458.75;;;9.91;nan
9189;BME280;34313;50.780;6.084;2024-01-30T05:05:20;100460.44;;;9.92;nan
9189;BME280;34313;50.780;6.084;2024-01-30T05:07:47;100461.75;;;9.81;nan
9189;BME280;34313;50.780;6.084;2024-01-30T05:10:12;100465.47;;;9.76;nan
9189;BME280;34313;50.780;6.084;2024-01-30T05:12:38;100463.16;;;9.68;nan
9189;BME280;34313;50.780;6.084;2024-01-30T05:15:04;100460.63;;;9.65;nan
9189;BME280;34313;50.780;6.084;2024-01-30T05:17:29;100462.91;;;9.74;nan
9189;BME280;34313;50.780;6.084;2024-01-30T05:19:55;100449.94;;;9.70;nan
9189;BME280;34313;50.780;6.084;2024-01-30T05:22:20;100450.97;;;9.65;nan
9189;BME280;34313;50.780;6.084;2024-01-30T05:24:45;100444.47;;;9.74;nan
9189;BME280;34313;50.780;6.084;2024-01-30T05:27:10;100442.78;;;9.73;nan
9189;BME280;34313;50.780;6.084;2024-01-30T05:29:38;100431.97;;;9.79;nan
9189;BME280;34313;50.780;6.084;2024-01-30T05:32:03;100439.81;;;9.81;nan
9189;BME280;34313;50.780;6.084;2024-01-30T05:34:30;100437.97;;;9.83;nan
9189;BME280;34313;50.780;6.084;2024-01-30T05:36:55;100430.69;;;9.90;nan
9189;BME280;34313;50.780;6.084;2024-01-30T05:39:21;100427.34;;;9.86;nan
9189;BME280;34313;50.780;6.084;2024-01-30T05:41:46;100430.88;;;9.85;nan
9189;BME280;34313;50.780;6.084;2024-01-30T05:44:11;100426.53;;;9.84;nan
9189;BME280;34313;50.780;6.084;2024-01-30T05:46:37;100427.00;;;9.94;nan
9189;BME280;34313;50.780;6.084;2024-01-30T05:49:02;100418.09;;;9.98;nan
9189;BME280;34313;50.780;6.084;2024-01-30T05:51:27;100418.03;;;9.99;nan
9189;BME280;34313;50.780;6.084;2024-01-30T05:53:53;100421.00;;;10.12;nan
9189;BME280;34313;50.780;6.084;2024-01-30T05:56:18;100415.44;;;10.18;nan
9189;BME280;34313;50.780;6.084;2024-01-30T05:58:44;100413.56;;;10.22;nan
9189;BME280;34313;50.780;6.084;2024-01-30T06:01:09;100417.06;;;10.22;nan
9189;BME280;34313;50.780;6.084;2024-01-30T06:03:34;100415.03;;;10.29;nan
9189;BME280;34313;50.780;6.084;2024-01-30T06:06:00;100422.81;;;10.32;nan
9189;BME280;34313;50.780;6.084;2024-01-30T06:08:25;100424.25;;;10.39;nan
9189;BME280;34313;50.780;6.084;2024-01-30T06:10:50;100429.47;;;10.41;nan
9189;BME280;34313;50.780;6.084;2024-01-30T06:13:16;100431.19;;;10.42;nan
9189;BME280;34313;50.780;6.084;2024-01-30T06:15:41;100432.53;;;10.52;nan
9189;BME280;34313;50.780;6.084;2024-01-30T06:18:06;100431.66;;;10.52;nan
9189;BME280;34313;50.780;6.084;2024-01-30T06:20:31;100428.03;;;10.54;nan
9189;BME280;34313;50.780;6.084;2024-01-30T06:22:57;100424.38;;;10.57;nan
9189;BME280;34313;50.780;6.084;2024-01-30T06:25:22;100427.38;;;10.49;nan
9189;BME280;34313;50.780;6.084;2024-01-30T06:27:47;100427.03;;;10.57;nan
9189;BME280;34313;50.780;6.084;2024-01-30T06:30:13;100420.66;;;10.63;nan
9189;BME280;34313;50.780;6.084;2024-01-30T06:32:38;100431.31;;;10.59;nan
9189;BME280;34313;50.780;6.084;2024-01-30T06:35:04;100424.97;;;10.64;nan
9189;BME280;34313;50.780;6.084;2024-01-30T06:37:31;100432.50;;;10.73;nan
9189;BME280;34313;50.780;6.084;2024-01-30T06:39:56;100425.94;;;10.63;nan
9189;BME280;34313;50.780;6.084;2024-01-30T06:42:21;100420.59;;;10.64;nan
9189;BME280;34313;50.780;6.084;2024-01-30T06:44:46;100409.94;;;10.66;nan
9189;BME280;34313;50.780;6.084;2024-01-30T06:47:12;100429.78;;;10.74;nan
9189;BME280;34313;50.780;6.084;2024-01-30T06:49:37;100426.72;;;10.65;nan
9189;BME280;34313;50.780;6.084;2024-01-30T06:52:06;100424.25;;;10.60;nan
9189;BME280;34313;50.780;6.084;2024-01-30T06:54:31;100425.22;;;10.59;nan
9189;BME280;34313;50.780;6.084;2024-01-30T06:56:57;100426.72;;;10.65;nan
9189;BME280;34313;50.780;6.084;2024-01-30T06:59:23;100426.72;;;10.65;nan
9189;BME280;34313;50.780;6.084;2024-01-30T07:01:48;100429.28;;;10.66;nan
9189;BME280;34313;50.780;6.084;2024-01-30T07:04:14;100428.22;;;10.70;nan
9189;BME280;34313;50.780;6.084;2024-01-30T07:06:39;100429.66;;;10.77;nan
9189;BME280;34313;50.780;6.084;2024-01-30T07:09:04;100437.56;;;10.77;nan
9189;BME280;34313;50.780;6.084;2024-01-30T07:11:30;100439.00;;;10.85;nan
9189;BME280;34313;50.780;6.084;2024-01-30T07:13:55;100442.06;;;10.75;nan
9189;BME280;34313;50.780;6.084;2024-01-30T07:16:21;100448.84;;;10.81;nan
9189;BME280;34313;50.780;6.084;2024-01-30T07:18:47;100449.91;;;10.77;nan
9189;BME280;34313;50.780;6.084;2024-01-30T07:21:12;100445.16;;;10.85;nan
9189;BME280;34313;50.780;6.084;2024-01-30T07:23:38;100452.53;;;10.77;nan
9189;BME280;34313;50.780;6.084;2024-01-30T07:26:04;100449.78;;;10.80;nan
9189;BME280;34313;50.780;6.084;2024-01-30T07:28:30;100452.13;;;10.86;nan
9189;BME280;34313;50.780;6.084;2024-01-30T07:30:55;100451.88;;;10.92;nan
9189;BME280;34313;50.780;6.084;2024-01-30T07:33:20;100450.78;;;10.96;nan
9189;BME280;34313;50.780;6.084;2024-01-30T07:35:46;100461.34;;;10.96;nan
9189;BME280;34313;50.780;6.084;2024-01-30T07:38:11;100466.28;;;11.04;nan
9189;BME280;34313;50.780;6.084;2024-01-30T07:40:37;100464.50;;;11.05;nan
9189;BME280;34313;50.780;6.084;2024-01-30T07:43:02;100470.63;;;11.05;nan
9189;BME280;34313;50.780;6.084;2024-01-30T07:45:28;100470.44;;;11.10;nan
9189;BME280;34313;50.780;6.084;2024-01-30T07:47:58;100462.44;;;11.11;nan
9189;BME280;34313;50.780;6.084;2024-01-30T07:50:24;100473.56;;;11.18;nan
9189;BME280;34313;50.780;6.084;2024-01-30T07:52:50;100458.38;;;11.23;nan
9189;BME280;34313;50.780;6.084;2024-01-30T07:55:19;100464.97;;;11.33;nan
9189;BME280;34313;50.780;6.084;2024-01-30T07:57:45;100469.97;;;11.40;nan
9189;BME280;34313;50.780;6.084;2024-01-30T08:00:11;100473.53;;;11.39;nan
9189;BME280;34313;50.780;6.084;2024-01-30T08:02:37;100474.44;;;11.38;nan
9189;BME280;34313;50.780;6.084;2024-01-30T08:05:02;100473.38;;;11.42;nan
9189;BME280;34313;50.780;6.084;2024-01-30T08:07:27;100484.00;;;11.40;nan
9189;BME280;34313;50.780;6.084;2024-01-30T08:09:54;100488.28;;;11.43;nan
9189;BME280;34313;50.780;6.084;2024-01-30T08:12:20;100480.34;;;11.43;nan
9189;BME280;34313;50.780;6.084;2024-01-30T08:14:45;100482.03;;;11.45;nan
9189;BME280;34313;50.780;6.084;2024-01-30T08:17:10;100491.44;;;11.51;nan
9189;BME280;34313;50.780;6.084;2024-01-30T08:19:35;100494.28;;;11.46;nan
9189;BME280;34313;50.780;6.084;2024-01-30T08:22:01;100485.38;;;11.49;nan
9189;BME280;34313;50.780;6.084;2024-01-30T08:24:26;100489.69;;;11.50;nan
9189;BME280;34313;50.780;6.084;2024-01-30T08:26:51;100489.81;;;11.48;nan
9189;BME280;34313;50.780;6.084;2024-01-30T08:29:17;100491.22;;;11.56;nan
9189;BME280;34313;50.780;6.084;2024-01-30T08:31:42;100493.63;;;11.60;nan
9189;BME280;34313;50.780;6.084;2024-01-30T08:34:07;100493.50;;;11.63;nan
9189;BME280;34313;50.780;6.084;2024-01-30T08:36:33;100493.88;;;11.75;nan
9189;BME280;34313;50.780;6.084;2024-01-30T08:38:58;100495.34;;;11.80;nan
9189;BME280;34313;50.780;6.084;2024-01-30T08:41:23;100504.59;;;11.90;nan
9189;BME280;34313;50.780;6.084;2024-01-30T08:43:49;100510.66;;;11.93;nan
9189;BME280;34313;50.780;6.084;2024-01-30T08:46:17;100511.94;;;12.03;nan
9189;BME280;34313;50.780;6.084;2024-01-30T08:48:42;100529.25;;;12.08;nan
9189;BME280;34313;50.780;6.084;2024-01-30T08:51:08;100528.09;;;12.14;nan
9189;BME280;34313;50.780;6.084;2024-01-30T08:53:34;100526.03;;;12.21;nan
9189;BME280;34313;50.780;6.084;2024-01-30T08:55:59;100523.25;;;12.24;nan
9189;BME280;34313;50.780;6.084;2024-01-30T08:58:25;100527.38;;;12.29;nan
9189;BME280;34313;50.780;6.084;2024-01-30T09:00:50;100527.44;;;12.28;nan
9189;BME280;34313;50.780;6.084;2024-01-30T09:03:16;100534.13;;;12.35;nan
9189;BME280;34313;50.780;6.084;2024-01-30T09:05:42;100542.06;;;12.35;nan
9189;BME280;34313;50.780;6.084;2024-01-30T09:08:07;100548.81;;;12.41;nan
9189;BME280;34313;50.780;6.084;2024-01-30T09:10:32;100544.25;;;12.44;nan
9189;BME280;34313;50.780;6.084;2024-01-30T09:12:57;100547.31;;;12.54;nan
9189;BME280;34313;50.780;6.084;2024-01-30T09:15:23;100551.75;;;12.71;nan
9189;BME280;34313;50.780;6.084;2024-01-30T09:17:48;100563.34;;;12.86;nan
9189;BME280;34313;50.780;6.084;2024-01-30T09:20:13;100563.09;;;13.08;nan
9189;BME280;34313;50.780;6.084;2024-01-30T09:22:39;100562.56;;;13.36;nan
9189;BME280;34313;50.780;6.084;2024-01-30T09:25:04;100564.50;;;13.66;nan
9189;BME280;34313;50.780;6.084;2024-01-30T09:27:29;100566.25;;;13.99;nan
9189;BME280;34313;50.780;6.084;2024-01-30T09:29:55;100572.63;;;14.27;nan
9189;BME280;34313;50.780;6.084;2024-01-30T09:32:21;100571.66;;;14.44;nan
9189;BME280;34313;50.780;6.084;2024-01-30T09:34:46;100572.84;;;14.54;nan
9189;BME280;34313;50.780;6.084;2024-01-30T09:37:11;100578.84;;;14.57;nan
9189;BME280;34313;50.780;6.084;2024-01-30T09:39:37;100577.66;;;14.47;nan
9189;BME280;34313;50.780;6.084;2024-01-30T09:44:43;100585.00;;;14.42;nan
9189;BME280;34313;50.780;6.084;2024-01-30T09:47:09;100573.97;;;14.34;nan
9189;BME280;34313;50.780;6.084;2024-01-30T09:49:35;100585.19;;;14.23;nan
9189;BME280;34313;50.780;6.084;2024-01-30T09:52:02;100581.94;;;14.18;nan
9189;BME280;34313;50.780;6.084;2024-01-30T09:54:31;100593.22;;;14.06;nan
9189;BME280;34313;50.780;6.084;2024-01-30T09:56:57;100584.00;;;14.13;nan
9189;BME280;34313;50.780;6.084;2024-01-30T09:59:23;100583.22;;;14.11;nan
9189;BME280;34313;50.780;6.084;2024-01-30T10:01:50;100572.03;;;14.06;nan
9189;BME280;34313;50.780;6.084;2024-01-30T10:04:15;100590.34;;;13.94;nan
9189;BME280;34313;50.780;6.084;2024-01-30T10:06:41;100578.78;;;13.95;nan
9189;BME280;34313;50.780;6.084;2024-01-30T10:09:07;100578.44;;;13.86;nan
9189;BME280;34313;50.780;6.084;2024-01-30T10:11:33;100582.63;;;13.90;nan
9189;BME280;34313;50.780;6.084;2024-01-30T10:13:59;100582.38;;;13.78;nan
9189;BME280;34313;50.780;6.084;2024-01-30T10:16:25;100580.03;;;13.72;nan
9189;BME280;34313;50.780;6.084;2024-01-30T10:18:50;100582.59;;;13.74;nan
9189;BME280;34313;50.780;6.084;2024-01-30T10:21:15;100579.19;;;13.72;nan
9189;BME280;34313;50.780;6.084;2024-01-30T10:23:43;100588.00;;;13.72;nan
9189;BME280;34313;50.780;6.084;2024-01-30T10:26:09;100589.13;;;13.84;nan
9189;BME280;34313;50.780;6.084;2024-01-30T10:28:34;100582.09;;;13.83;nan
9189;BME280;34313;50.780;6.084;2024-01-30T10:31:00;100579.03;;;13.75;nan
9189;BME280;34313;50.780;6.084;2024-01-30T10:33:28;100583.28;;;13.77;nan
9189;BME280;34313;50.780;6.084;2024-01-30T10:36:00;100599.28;;;13.92;nan
9189;BME280;34313;50.780;6.084;2024-01-30T10:38:28;100583.50;;;14.06;nan
9189;BME280;34313;50.780;6.084;2024-01-30T10:40:56;100585.19;;;14.23;nan
9189;BME280;34313;50.780;6.084;2024-01-30T10:43:22;100593.41;;;14.34;nan
9189;BME280;34313;50.780;6.084;2024-01-30T10:45:49;100577.19;;;14.55;nan
9189;BME280;34313;50.780;6.084;2024-01-30T10:48:18;100594.97;;;14.85;nan
9189;BME280;34313;50.780;6.084;2024-01-30T10:50:48;100597.41;;;15.04;nan
9189;BME280;34313;50.780;6.084;2024-01-30T10:53:16;100595.75;;;15.31;nan
9189;BME280;34313;50.780;6.084;2024-01-30T10:55:43;100594.22;;;15.13;nan
9189;BME280;34313;50.780;6.084;2024-01-30T10:58:08;100595.16;;;14.82;nan
9189;BME280;34313;50.780;6.084;2024-01-30T11:00:36;100599.66;;;14.96;nan
9189;BME280;34313;50.780;6.084;2024-01-30T11:03:03;100602.38;;;14.80;nan
9189;BME280;34313;50.780;6.084;2024-01-30T11:05:29;100601.25;;;14.84;nan
9189;BME280;34313;50.780;6.084;2024-01-30T11:07:54;100601.75;;;14.90;nan
9189;BME280;34313;50.780;6.084;2024-01-30T11:10:20;100593.03;;;15.03;nan
9189;BME280;34313;50.780;6.084;2024-01-30T11:12:46;100574.69;;;14.84;nan
9189;BME280;34313;50.780;6.084;2024-01-30T11:15:18;100591.84;;;14.78;nan
9189;BME280;34313;50.780;6.084;2024-01-30T11:20:21;100593.22;;;14.53;nan
9189;BME280;34313;50.780;6.084;2024-01-30T11:22:50;100589.72;;;14.37;nan
9189;BME280;34313;50.780;6.084;2024-01-30T11:25:19;100607.00;;;14.28;nan
9189;BME280;34313;50.780;6.084;2024-01-30T11:27:45;100591.25;;;14.25;nan
9189;BME280;34313;50.780;6.084;2024-01-30T11:30:27;100592.91;;;14.12;nan
9189;BME280;34313;50.780;6.084;2024-01-30T11:35:35;100597.69;;;14.05;nan
9189;BME280;34313;50.780;6.084;2024-01-30T11:38:01;100597.53;;;14.08;nan
9189;BME280;34313;50.780;6.084;2024-01-30T11:40:28;100604.72;;;14.06;nan
9189;BME280;34313;50.780;6.084;2024-01-30T11:42:55;100612.16;;;13.99;nan
9189;BME280;34313;50.780;6.084;2024-01-30T11:45:20;100603.97;;;13.71;nan
9189;BME280;34313;50.780;6.084;2024-01-30T11:47:47;100608.22;;;13.57;nan
9189;BME280;34313;50.780;6.084;2024-01-30T11:50:12;100609.44;;;13.34;nan
9189;BME280;34313;50.780;6.084;2024-01-30T11:52:39;100608.47;;;13.35;nan
9189;BME280;34313;50.780;6.084;2024-01-30T11:55:05;100623.72;;;13.13;nan
9189;BME280;34313;50.780;6.084;2024-01-30T11:57:30;100608.03;;;13.10;nan
9189;BME280;34313;50.780;6.084;2024-01-30T11:59:55;100605.28;;;12.94;nan
9189;BME280;34313;50.780;6.084;2024-01-30T12:02:21;100614.16;;;12.93;nan
9189;BME280;34313;50.780;6.084;2024-01-30T12:04:46;100615.16;;;12.90;nan
9189;BME280;34313;50.780;6.084;2024-01-30T12:07:12;100610.75;;;12.91;nan
9189;BME280;34313;50.780;6.084;2024-01-30T12:09:41;100607.63;;;12.82;nan
9189;BME280;34313;50.780;6.084;2024-01-30T12:12:06;100599.38;;;12.71;nan
9189;BME280;34313;50.780;6.084;2024-01-30T12:14:32;100602.94;;;12.70;nan
9189;BME280;34313;50.780;6.084;2024-01-30T12:16:57;100606.88;;;12.61;nan
9189;BME280;34313;50.780;6.084;2024-01-30T12:19:26;100601.34;;;12.48;nan
9189;BME280;34313;50.780;6.084;2024-01-30T12:21:56;100602.06;;;12.52;nan
9189;BME280;34313;50.780;6.084;2024-01-30T12:24:22;100611.63;;;12.55;nan
9189;BME280;34313;50.780;6.084;2024-01-30T12:26:47;100605.47;;;12.54;nan
9189;BME280;34313;50.780;6.084;2024-01-30T12:29:14;100596.22;;;12.45;nan
9189;BME280;34313;50.780;6.084;2024-01-30T12:31:41;100605.63;;;12.51;nan
9189;BME280;34313;50.780;6.084;2024-01-30T12:34:07;100602.91;;;12.53;nan
9189;BME280;34313;50.780;6.084;2024-01-30T12:36:32;100598.47;;;12.53;nan
9189;BME280;34313;50.780;6.084;2024-01-30T12:39:00;100593.75;;;12.60;nan
9189;BME280;34313;50.780;6.084;2024-01-30T12:41:26;100598.81;;;12.64;nan
9189;BME280;34313;50.780;6.084;2024-01-30T12:43:54;100593.75;;;12.77;nan
9189;BME280;34313;50.780;6.084;2024-01-30T12:46:20;100606.13;;;12.77;nan
9189;BME280;34313;50.780;6.084;2024-01-30T12:48:45;100606.91;;;12.79;nan
9189;BME280;34313;50.780;6.084;2024-01-30T12:51:11;100612.19;;;12.61;nan
9189;BME280;34313;50.780;6.084;2024-01-30T12:53:36;100613.47;;;12.53;nan
9189;BME280;34313;50.780;6.084;2024-01-30T12:56:02;100617.78;;;12.55;nan
9189;BME280;34313;50.780;6.084;2024-01-30T12:58:27;100613.56;;;12.51;nan
9189;BME280;34313;50.780;6.084;2024-01-30T13:00:53;100617.22;;;12.48;nan
9189;BME280;34313;50.780;6.084;2024-01-30T13:03:19;100615.88;;;12.40;nan
9189;BME280;34313;50.780;6.084;2024-01-30T13:05:44;100621.94;;;12.42;nan
9189;BME280;34313;50.780;6.084;2024-01-30T13:08:09;100616.72;;;12.40;nan
9189;BME280;34313;50.780;6.084;2024-01-30T13:10:35;100620.81;;;12.28;nan
9189;BME280;34313;50.780;6.084;2024-01-30T13:13:00;100627.31;;;12.21;nan
9189;BME280;34313;50.780;6.084;2024-01-30T13:15:25;100630.72;;;12.23;nan
9189;BME280;34313;50.780;6.084;2024-01-30T13:17:51;100640.66;;;12.18;nan
9189;BME280;34313;50.780;6.084;2024-01-30T13:20:18;100633.25;;;12.07;nan
9189;BME280;34313;50.780;6.084;2024-01-30T13:22:45;100633.16;;;12.09;nan
9189;BME280;34313;50.780;6.084;2024-01-30T13:25:10;100636.47;;;12.14;nan
9189;BME280;34313;50.780;6.084;2024-01-30T13:27:36;100633.09;;;12.10;nan